Airfield :
LOGIN :

Register | Disclaimer

   EN    FR    IT 

 










Legend :    VFR   Marginal VFR   IFR   Intensive IFR   Very Intensive IFR
Visi :
Ceiling :
>= 8 km
>= 3000ft
5 to 8 km
1000 to 3000 ft
1500m to 5 km
500 to 1000 ft
800 to 1500m
200 to 500 ft
< 800m
< 200 ft
Symbols :   Thunderstorms  Fog  Heavy snow  Heavy precipitations  Wind > 20 kt
SIGMETs :     Misc.  Thunderstorms  Icing  Turbulence  Mountain Waves  Volcanic Ashes






- Airport Elevation : 96 ft
- IATA code : REG


LICR - Reggio Calabria

CURRENT METAR :
  • 280620Z AUTO VRB02KT 9999 NCD 24/13 Q1008

EXPIRED METARs :
  • 280550Z AUTO VRB02KT 9999 NCD 24/12 Q1008
  • 280520Z AUTO 10004KT 080V150 9999 NCD 22/12 Q1008
  • 280450Z AUTO 09004KT 9999 NCD 20/12 Q1008
  • 280420Z AUTO 09003KT 9999 NCD 18/10 Q1008

TAF TAF LICR
Valid from the 28 at 06:00 until the 29 at 06:00 UTC


280500Z 2806/2906 22010KT CAVOK
TEMPO 2814/2821 TSRA
BECMG 2815/2817 35012KT



MET'MAP, your aeronautical weather chart ! - Copyright ORBIFLY December 2007 - Disclaimer

ORBIFLY MET'MAP TEAM :

Programming & Development : Alexandra Zaïnal
Original concept : Baudouin d'Aumeries
Technical & hardware support : Manuel Goepfert
Assistance : Marc-Olivier Méhu

Contact : metmap@orbifly.com




SOURCES & CREDITS :

   NOAA